TimeEDT,TemperatureF,Dew PointF,Humidity,Sea Level PressureIn,VisibilityMPH,Wind Direction,Wind SpeedMPH,Gust SpeedMPH,PrecipitationIn,Events,Conditions,WindDirDegrees,DateUTC
12:53 AM,64.0,52.0,65,30.02,10.0,NW,9.2,-,N/A,,Unknown,320,2011-10-22 04:53:00
1:53 AM,64.9,52.0,63,30.01,10.0,NW,9.2,-,N/A,,Mostly Cloudy,320,2011-10-22 05:53:00
3:53 AM,63.0,52.0,67,29.98,10.0,NW,11.5,-,N/A,,Unknown,320,2011-10-22 07:53:00
4:53 AM,63.0,50.0,63,29.96,10.0,NW,12.7,-,N/A,,Unknown,320,2011-10-22 08:53:00
5:53 AM,63.0,51.1,65,29.96,10.0,NW,10.4,-,N/A,,Scattered Clouds,320,2011-10-22 09:53:00
6:53 AM,63.0,50.0,63,29.98,10.0,NW,11.5,-,N/A,,Mostly Cloudy,320,2011-10-22 10:53:00
7:53 AM,64.0,55.0,73,29.99,10.0,NW,10.4,-,N/A,,Scattered Clouds,320,2011-10-22 11:53:00
8:53 AM,66.0,55.0,68,30.01,10.0,NW,12.7,-,N/A,,Scattered Clouds,320,2011-10-22 12:53:00
9:53 AM,70.0,57.0,63,30.01,10.0,NNW,13.8,-,N/A,,Scattered Clouds,330,2011-10-22 13:53:00
10:53 AM,73.9,59.0,59,30.01,10.0,NNW,11.5,-,N/A,,Partly Cloudy,330,2011-10-22 14:53:00
11:53 AM,78.1,60.1,54,30.00,10.0,North,5.8,-,N/A,,Scattered Clouds,350,2011-10-22 15:53:00
12:53 PM,80.1,60.1,50,29.98,10.0,NNE,10.4,-,N/A,,Scattered Clouds,30,2011-10-22 16:53:00
1:53 PM,79.0,61.0,54,29.95,10.0,NNE,11.5,-,N/A,,Scattered Clouds,20,2011-10-22 17:53:00
2:53 PM,81.0,59.0,47,29.93,10.0,NE,10.4,-,N/A,,Scattered Clouds,40,2011-10-22 18:53:00
3:53 PM,80.1,59.0,48,29.92,10.0,NNE,13.8,18.4,N/A,,Clear,30,2011-10-22 19:53:00
4:53 PM,79.0,59.0,50,29.92,10.0,NE,11.5,-,N/A,,Scattered Clouds,40,2011-10-22 20:53:00
5:53 PM,77.0,61.0,58,29.92,10.0,NE,9.2,-,N/A,,Scattered Clouds,50,2011-10-22 21:53:00
6:53 PM,77.0,57.0,50,29.92,10.0,NNE,13.8,-,N/A,,Scattered Clouds,20,2011-10-22 22:53:00
7:53 PM,75.0,57.0,53,29.94,10.0,North,5.8,-,N/A,,Scattered Clouds,350,2011-10-22 23:53:00
8:53 PM,73.9,60.1,62,29.95,10.0,NNW,3.5,-,0.00,Rain,Light Rain,330,2011-10-23 00:53:00
9:53 PM,73.0,59.0,61,29.96,10.0,NW,6.9,-,N/A,,Mostly Cloudy,320,2011-10-23 01:53:00
10:53 PM,73.0,60.1,64,29.96,10.0,NW,8.1,-,N/A,,Overcast,320,2011-10-23 02:53:00
11:53 PM,70.0,62.1,76,29.96,10.0,NNW,9.2,-,0.00,Rain,Light Rain,330,2011-10-23 03:53:00